createdAt,value
2018-06-24T00:00:38.754Z,39.70
2018-06-24T00:03:07.649Z,39.90
2018-06-24T00:05:36.542Z,40.00
2018-06-24T00:08:05.392Z,40.00
2018-06-24T00:10:34.304Z,40.20
2018-06-24T00:13:03.141Z,40.20
2018-06-24T00:15:32.065Z,40.30
2018-06-24T00:18:01.010Z,40.40
2018-06-24T00:20:30.440Z,40.50
2018-06-24T00:22:59.285Z,40.40
2018-06-24T00:25:28.060Z,40.40
2018-06-24T00:27:57.253Z,40.80
2018-06-24T00:30:26.203Z,40.90
2018-06-24T00:32:55.302Z,41.20
2018-06-24T00:35:24.295Z,41.40
2018-06-24T00:37:54.055Z,41.20
2018-06-24T00:40:23.286Z,41.40
2018-06-24T00:42:52.169Z,41.30
2018-06-24T00:47:49.465Z,41.30
2018-06-24T00:50:18.245Z,41.60
2018-06-24T00:52:47.151Z,41.50
2018-06-24T00:55:16.481Z,41.70
2018-06-24T00:57:45.962Z,42.40
2018-06-24T01:00:18.840Z,42.20
2018-06-24T01:02:48.066Z,42.10
2018-06-24T01:05:17.117Z,41.90
2018-06-24T01:10:16.110Z,42.00
2018-06-24T01:12:44.887Z,42.10
2018-06-24T01:15:14.313Z,42.30
2018-06-24T01:17:43.288Z,42.10
2018-06-24T01:20:12.896Z,42.10
2018-06-24T01:22:42.462Z,42.10
2018-06-24T01:25:11.221Z,42.30
2018-06-24T01:27:41.446Z,42.50
2018-06-24T01:30:11.463Z,42.00
2018-06-24T01:32:40.312Z,42.40
2018-06-24T01:35:09.245Z,43.20
2018-06-24T01:37:38.234Z,43.10
2018-06-24T01:40:07.458Z,43.20
2018-06-24T01:42:37.336Z,43.30
2018-06-24T01:45:06.249Z,43.50
2018-06-24T01:47:40.700Z,43.70
2018-06-24T01:50:13.152Z,43.50
2018-06-24T01:52:41.883Z,43.80
2018-06-24T01:55:11.591Z,43.40
2018-06-24T01:57:40.720Z,43.30
2018-06-24T02:00:09.987Z,43.20
2018-06-24T02:02:39.585Z,43.20
2018-06-24T02:05:09.185Z,43.40
2018-06-24T02:07:37.876Z,43.90
2018-06-24T02:10:06.773Z,43.70
2018-06-24T02:12:35.565Z,43.90
2018-06-24T02:15:05.062Z,43.80
2018-06-24T02:17:33.943Z,44.00
2018-06-24T02:20:02.989Z,44.20
2018-06-24T02:22:32.007Z,44.30
2018-06-24T02:25:02.384Z,44.30
2018-06-24T02:27:31.287Z,44.30
2018-06-24T02:30:00.195Z,44.10
2018-06-24T02:32:29.039Z,44.20
2018-06-24T02:34:58.065Z,44.70
2018-06-24T02:37:27.807Z,44.80
2018-06-24T02:39:56.651Z,45.20
2018-06-24T02:42:29.616Z,45.10
2018-06-24T02:44:59.823Z,45.80
2018-06-24T02:47:28.761Z,45.70
2018-06-24T02:49:57.687Z,45.90
2018-06-24T02:52:30.975Z,45.90
2018-06-24T02:54:59.791Z,46.00
2018-06-24T02:57:28.749Z,46.40
2018-06-24T02:59:57.808Z,47.10
2018-06-24T03:02:26.702Z,45.90
2018-06-24T03:04:55.542Z,46.00
2018-06-24T03:07:26.495Z,46.50
2018-06-24T03:09:55.591Z,46.10
2018-06-24T03:12:24.468Z,46.50
2018-06-24T03:14:53.318Z,46.70
2018-06-24T03:17:22.192Z,46.70
2018-06-24T03:19:50.985Z,46.50
2018-06-24T03:22:20.784Z,46.40
2018-06-24T03:24:50.077Z,46.70
2018-06-24T03:27:19.066Z,47.10
2018-06-24T03:29:47.960Z,46.90
2018-06-24T03:32:16.896Z,47.10
2018-06-24T03:34:50.107Z,47.10
2018-06-24T03:37:18.991Z,47.20
2018-06-24T03:39:47.893Z,47.20
2018-06-24T03:42:16.778Z,47.50
2018-06-24T03:44:45.593Z,47.70
2018-06-24T03:47:14.737Z,47.70
2018-06-24T03:49:44.712Z,48.00
2018-06-24T03:52:13.922Z,48.10
2018-06-24T03:54:43.793Z,47.90
2018-06-24T03:57:12.662Z,47.70
2018-06-24T03:59:41.633Z,48.00
2018-06-24T04:02:12.296Z,47.70
2018-06-24T04:04:42.620Z,48.30
2018-06-24T04:07:11.831Z,48.50
2018-06-24T04:09:42.120Z,48.70
2018-06-24T04:12:12.978Z,48.20
2018-06-24T04:14:41.872Z,47.70
2018-06-24T04:17:10.800Z,47.50
2018-06-24T04:19:41.962Z,47.20
2018-06-24T04:22:12.120Z,47.80
2018-06-24T04:24:41.312Z,48.10
2018-06-24T04:27:12.785Z,47.80
2018-06-24T04:29:41.716Z,48.30
2018-06-24T04:32:10.954Z,48.40
2018-06-24T04:34:39.840Z,48.50
2018-06-24T04:37:10.318Z,48.40
2018-06-24T04:39:39.258Z,47.90
2018-06-24T04:42:08.025Z,47.70
2018-06-24T04:44:36.765Z,47.40
2018-06-24T04:47:05.545Z,47.30
2018-06-24T04:49:34.306Z,47.50
2018-06-24T04:52:03.191Z,47.00
2018-06-24T04:54:31.943Z,46.80
2018-06-24T04:57:01.239Z,46.90
2018-06-24T04:59:30.176Z,46.80
2018-06-24T05:01:59.005Z,47.10
2018-06-24T05:04:27.809Z,46.90
2018-06-24T05:06:56.637Z,46.40
2018-06-24T05:09:25.623Z,46.80
2018-06-24T05:11:55.851Z,46.40
2018-06-24T05:14:24.715Z,46.40
2018-06-24T05:16:53.703Z,45.90
2018-06-24T05:19:22.931Z,45.60
2018-06-24T05:21:52.324Z,45.10
2018-06-24T05:24:25.067Z,45.70
2018-06-24T05:26:58.407Z,45.00
2018-06-24T05:29:28.402Z,44.80
2018-06-24T05:31:57.388Z,44.80
2018-06-24T05:34:26.332Z,43.80
2018-06-24T05:36:55.307Z,44.20
2018-06-24T05:39:24.087Z,42.90
2018-06-24T05:41:52.993Z,43.80
2018-06-24T05:44:21.680Z,43.80
2018-06-24T05:46:50.450Z,43.20
2018-06-24T05:49:19.437Z,43.00
2018-06-24T05:51:48.329Z,42.30
2018-06-24T05:54:17.335Z,42.20
2018-06-24T05:56:46.336Z,41.80
2018-06-24T05:59:15.304Z,41.80
2018-06-24T06:01:44.832Z,41.90
2018-06-24T06:04:14.373Z,42.60
2018-06-24T06:06:43.137Z,43.30
2018-06-24T06:09:13.047Z,43.60
2018-06-24T06:11:42.180Z,43.60
2018-06-24T06:16:40.202Z,42.40
2018-06-24T06:19:09.551Z,42.00
2018-06-24T06:21:38.824Z,41.40
2018-06-24T06:26:36.977Z,40.60
2018-06-24T06:29:07.375Z,41.10
2018-06-24T06:31:36.675Z,41.60
2018-06-24T06:34:06.925Z,40.90
2018-06-24T06:36:35.914Z,41.40
2018-06-24T06:39:07.290Z,41.20
2018-06-24T06:41:36.417Z,41.30
2018-06-24T06:44:05.622Z,40.60
2018-06-24T06:46:35.580Z,40.40
2018-06-24T06:49:08.057Z,40.70
2018-06-24T06:51:37.150Z,40.10
2018-06-24T06:54:06.363Z,40.00
2018-06-24T06:56:35.446Z,38.80
2018-06-24T06:59:04.913Z,39.20
2018-06-24T07:01:33.900Z,38.30
2018-06-24T07:04:03.811Z,36.70
2018-06-24T07:06:32.660Z,36.50
2018-06-24T07:09:02.060Z,35.90
2018-06-24T07:11:32.208Z,35.40
2018-06-24T07:14:01.553Z,36.90
2018-06-24T07:16:30.603Z,36.80
2018-06-24T07:18:59.439Z,36.30
2018-06-24T07:21:29.848Z,35.90
2018-06-24T07:24:00.925Z,33.90
2018-06-24T07:26:29.965Z,33.10
2018-06-24T07:28:59.657Z,33.40
2018-06-24T07:31:29.348Z,33.30
2018-06-24T07:33:58.894Z,33.60
2018-06-24T07:36:29.553Z,33.60
2018-06-24T07:38:58.836Z,33.50
2018-06-24T07:41:27.962Z,32.50
2018-06-24T07:43:57.360Z,31.40
2018-06-24T07:46:26.498Z,32.00
2018-06-24T07:48:56.000Z,31.20
2018-06-24T07:51:24.953Z,32.80
2018-06-24T07:53:53.879Z,32.10
2018-06-24T07:56:22.742Z,31.30
2018-06-24T07:58:51.831Z,31.40
2018-06-24T08:01:20.827Z,30.00
2018-06-24T08:03:49.748Z,29.70
2018-06-24T08:06:18.644Z,31.80
2018-06-24T08:08:47.855Z,31.70
2018-06-24T08:11:17.328Z,32.00
2018-06-24T08:13:47.975Z,31.80
2018-06-24T08:16:19.743Z,32.20
2018-06-24T08:18:48.861Z,32.10
2018-06-24T08:21:17.888Z,33.10
2018-06-24T08:23:47.023Z,33.60
2018-06-24T08:26:18.139Z,34.00
2018-06-24T08:28:47.851Z,34.30
2018-06-24T08:31:17.097Z,34.60
2018-06-24T08:33:48.896Z,35.40
2018-06-24T08:36:18.708Z,35.20
2018-06-24T08:38:47.996Z,34.70
2018-06-24T08:41:17.229Z,34.60
2018-06-24T08:43:48.144Z,34.00
2018-06-24T08:46:20.351Z,33.50
2018-06-24T08:48:52.390Z,32.60
2018-06-24T08:51:22.713Z,31.40
2018-06-24T08:53:53.287Z,30.70
2018-06-24T08:56:23.446Z,30.20
2018-06-24T08:58:53.629Z,30.00
2018-06-24T09:01:22.508Z,30.80
2018-06-24T09:03:51.400Z,30.40
2018-06-24T09:06:20.861Z,30.70
2018-06-24T09:08:49.846Z,30.70
2018-06-24T09:11:18.991Z,30.10
2018-06-24T09:13:48.776Z,30.70
2018-06-24T09:16:18.635Z,30.10
2018-06-24T09:18:47.529Z,29.60
2018-06-24T09:21:16.410Z,30.40
2018-06-24T09:23:45.645Z,30.50
2018-06-24T09:26:18.888Z,30.60
2018-06-24T09:28:48.202Z,29.80
2018-06-24T09:31:17.296Z,31.20
2018-06-24T09:33:47.271Z,31.60
2018-06-24T09:36:18.705Z,30.60
2018-06-24T09:38:49.225Z,30.80
2018-06-24T09:41:18.745Z,31.70
2018-06-24T09:43:48.334Z,31.10
2018-06-24T09:46:18.305Z,29.80
2018-06-24T09:48:49.202Z,28.40
2018-06-24T09:51:18.347Z,28.70
2018-06-24T09:53:47.382Z,28.10
2018-06-24T09:56:19.247Z,28.80
2018-06-24T09:58:48.226Z,27.50
2018-06-24T10:01:17.127Z,28.50
2018-06-24T10:03:47.693Z,29.30
2018-06-24T10:06:17.932Z,29.40
2018-06-24T10:08:50.315Z,29.40
2018-06-24T10:11:19.744Z,29.50
2018-06-24T10:13:48.591Z,28.40
2018-06-24T10:16:19.663Z,29.50
2018-06-24T10:18:48.553Z,29.90
2018-06-24T10:21:17.518Z,30.40
2018-06-24T10:23:48.133Z,29.60
2018-06-24T10:26:17.889Z,29.10
2018-06-24T10:28:46.776Z,30.30
2018-06-24T10:33:46.300Z,30.00
2018-06-24T10:36:15.659Z,29.20
2018-06-24T10:38:45.665Z,29.30
2018-06-24T10:41:14.758Z,29.30
2018-06-24T10:43:44.077Z,29.50
2018-06-24T10:46:13.163Z,30.00
2018-06-24T10:48:43.252Z,28.30
2018-06-24T10:51:15.898Z,28.00
2018-06-24T10:53:45.255Z,28.90
2018-06-24T10:56:18.420Z,30.00
2018-06-24T10:58:47.286Z,29.40
2018-06-24T11:01:16.167Z,29.20
2018-06-24T11:03:45.151Z,30.50
2018-06-24T11:06:22.860Z,30.00
2018-06-24T11:08:54.119Z,29.80
2018-06-24T11:13:58.347Z,29.40
2018-06-24T11:16:37.203Z,29.50
2018-06-24T11:19:09.851Z,29.10
2018-06-24T11:21:39.929Z,28.80
2018-06-24T11:24:09.692Z,29.30
2018-06-24T11:26:40.063Z,29.20
2018-06-24T11:29:09.383Z,30.20
2018-06-24T11:31:38.848Z,28.00
2018-06-24T11:34:07.937Z,28.60
2018-06-24T11:36:37.243Z,28.10
2018-06-24T11:39:09.020Z,29.20
2018-06-24T11:41:38.187Z,29.50
2018-06-24T11:44:08.611Z,28.30
2018-06-24T11:46:38.303Z,29.10
2018-06-24T11:49:08.572Z,29.40
2018-06-24T11:51:37.759Z,29.30
2018-06-24T11:54:06.758Z,28.50
2018-06-24T11:56:36.660Z,28.30
2018-06-24T11:59:05.715Z,28.20
2018-06-24T12:01:37.753Z,28.60
2018-06-24T12:04:06.568Z,29.40
2018-06-24T12:06:35.543Z,29.90
2018-06-24T12:09:07.055Z,29.60
2018-06-24T12:11:35.942Z,30.60
2018-06-24T12:14:07.467Z,30.20
2018-06-24T12:16:36.430Z,29.30
2018-06-24T12:19:05.981Z,29.30
2018-06-24T12:21:35.041Z,29.50
2018-06-24T12:24:04.725Z,29.80
2018-06-24T12:26:33.900Z,29.80
2018-06-24T12:29:02.912Z,29.30
2018-06-24T12:31:31.903Z,29.50
2018-06-24T12:34:00.936Z,29.20
2018-06-24T12:36:37.427Z,29.40
2018-06-24T12:39:14.543Z,29.40
2018-06-24T12:41:44.951Z,29.60
2018-06-24T12:44:14.751Z,29.90
2018-06-24T12:46:43.655Z,30.60
2018-06-24T12:49:12.953Z,29.60
2018-06-24T12:51:42.343Z,30.00
2018-06-24T12:54:11.940Z,29.10
2018-06-24T12:56:42.432Z,29.10
2018-06-24T12:59:12.953Z,28.50
2018-06-24T13:04:13.231Z,29.00
2018-06-24T13:06:42.193Z,29.20
2018-06-24T13:09:12.409Z,28.60
2018-06-24T13:11:41.585Z,28.60
2018-06-24T13:14:11.615Z,28.80
2018-06-24T13:16:41.362Z,28.70
2018-06-24T13:19:10.550Z,28.50
2018-06-24T13:21:39.535Z,28.90
2018-06-24T13:24:09.350Z,29.00
2018-06-24T13:26:38.688Z,29.00
2018-06-24T13:29:09.366Z,28.70
2018-06-24T13:31:38.285Z,28.80
2018-06-24T13:34:08.796Z,28.80
2018-06-24T13:36:37.664Z,28.60
2018-06-24T13:39:09.960Z,28.90
2018-06-24T13:41:39.753Z,28.60
2018-06-24T13:44:09.011Z,29.30
2018-06-24T13:46:44.613Z,29.20
2018-06-24T13:49:13.463Z,29.50
2018-06-24T13:51:42.305Z,29.50
2018-06-24T13:54:12.836Z,29.40
2018-06-24T13:56:42.211Z,29.50
2018-06-24T13:59:12.062Z,29.30
2018-06-24T14:01:41.086Z,28.80
2018-06-24T14:04:10.715Z,28.50
2018-06-24T14:06:39.721Z,27.90
2018-06-24T14:09:11.380Z,27.50
2018-06-24T14:11:41.289Z,27.10
2018-06-24T14:14:11.233Z,27.30
2018-06-24T14:16:40.303Z,26.50
2018-06-24T14:19:09.601Z,26.90
2018-06-24T14:21:38.607Z,27.00
2018-06-24T14:24:09.650Z,27.60
2018-06-24T14:26:38.573Z,28.10
2018-06-24T14:29:07.484Z,28.10
2018-06-24T14:31:36.538Z,27.30
2018-06-24T14:34:07.459Z,27.10
2018-06-24T14:36:36.574Z,28.60
2018-06-24T14:39:08.256Z,27.00
2018-06-24T14:41:38.140Z,27.30
2018-06-24T14:44:08.785Z,26.80
2018-06-24T14:46:37.766Z,27.00
2018-06-24T14:49:06.791Z,26.60
2018-06-24T14:51:36.238Z,27.20
2018-06-24T14:54:05.305Z,27.20
2018-06-24T14:56:34.635Z,26.70
2018-06-24T14:59:05.163Z,26.70
2018-06-24T15:01:34.514Z,26.50
2018-06-24T15:04:04.386Z,26.60
2018-06-24T15:06:33.369Z,26.30
2018-06-24T15:09:02.284Z,26.70
2018-06-24T15:11:32.511Z,26.10
2018-06-24T15:14:01.499Z,25.40
2018-06-24T15:16:30.319Z,24.80
2018-06-24T15:18:59.358Z,24.60
2018-06-24T15:21:28.450Z,25.10
2018-06-24T15:23:57.612Z,24.80
2018-06-24T15:28:56.107Z,24.90
2018-06-24T15:31:25.672Z,25.60
2018-06-24T15:33:55.669Z,25.10
2018-06-24T15:36:24.717Z,24.90
2018-06-24T15:38:54.732Z,25.00
2018-06-24T15:41:24.105Z,25.10
2018-06-24T15:43:53.092Z,25.30
2018-06-24T15:46:22.264Z,25.50
2018-06-24T15:51:21.568Z,24.50
2018-06-24T15:53:50.617Z,25.00
2018-06-24T15:56:20.551Z,24.80
2018-06-24T15:58:49.519Z,24.80
2018-06-24T16:01:18.732Z,25.30
2018-06-24T16:03:49.078Z,25.80
2018-06-24T16:06:22.139Z,25.70
2018-06-24T16:08:51.694Z,25.80
2018-06-24T16:11:20.557Z,25.70
2018-06-24T16:13:50.519Z,25.30
2018-06-24T16:16:21.913Z,24.70
2018-06-24T16:18:51.892Z,24.70
2018-06-24T16:21:20.948Z,25.30
2018-06-24T16:23:50.896Z,25.60
2018-06-24T16:26:21.713Z,25.70
2018-06-24T16:28:51.150Z,25.90
2018-06-24T16:33:51.521Z,27.00
2018-06-24T16:36:22.069Z,27.60
2018-06-24T16:38:51.283Z,27.50
2018-06-24T16:41:21.399Z,28.10
2018-06-24T16:43:51.003Z,28.20
2018-06-24T16:46:21.478Z,28.10
2018-06-24T16:51:18.999Z,29.90
2018-06-24T16:53:48.854Z,30.80
2018-06-24T16:56:18.851Z,31.90
2018-06-24T16:58:47.904Z,32.40
2018-06-24T17:01:16.858Z,33.40
2018-06-24T17:03:46.123Z,34.80
2018-06-24T17:06:16.751Z,34.30
2018-06-24T17:08:46.471Z,34.60
2018-06-24T17:11:16.621Z,34.80
2018-06-24T17:13:46.743Z,35.00
2018-06-24T17:16:16.505Z,35.00
2018-06-24T17:18:47.675Z,35.40
2018-06-24T17:21:16.721Z,35.30
2018-06-24T17:23:49.753Z,35.10
2018-06-24T17:26:19.087Z,35.70
2018-06-24T17:28:48.645Z,35.70
2018-06-24T17:31:19.379Z,35.60
2018-06-24T17:33:52.020Z,35.60
2018-06-24T17:36:21.727Z,35.70
2018-06-24T17:38:54.885Z,36.60
2018-06-24T17:41:24.307Z,35.70
2018-06-24T17:43:54.177Z,35.00
2018-06-24T17:46:24.151Z,34.80
2018-06-24T17:48:53.959Z,34.60
2018-06-24T17:51:23.336Z,34.40
2018-06-24T17:56:22.467Z,34.20
2018-06-24T17:58:51.785Z,34.20
2018-06-24T18:01:21.016Z,34.00
2018-06-24T18:03:50.209Z,33.90
2018-06-24T18:06:21.040Z,33.20
2018-06-24T18:08:50.957Z,33.60
2018-06-24T18:11:22.388Z,33.40
2018-06-24T18:13:52.226Z,33.90
2018-06-24T18:16:47.101Z,33.60
2018-06-24T18:19:18.217Z,33.10
2018-06-24T18:21:49.487Z,32.90
2018-06-24T18:24:19.065Z,31.90
2018-06-24T18:27:11.561Z,31.80
2018-06-24T18:29:41.226Z,32.10
2018-06-24T18:32:10.515Z,32.40
2018-06-24T18:34:42.277Z,32.50
2018-06-24T18:37:13.277Z,32.60
2018-06-24T18:39:43.330Z,33.00
2018-06-24T18:42:12.725Z,32.70
2018-06-24T18:44:42.334Z,33.10
2018-06-24T18:47:14.503Z,33.80
2018-06-24T18:49:44.370Z,33.50
2018-06-24T18:52:14.309Z,33.60
2018-06-24T18:54:44.242Z,34.00
2018-06-24T18:57:16.774Z,33.80
2018-06-24T18:59:47.323Z,34.00
2018-06-24T19:02:17.456Z,34.50
2018-06-24T19:04:47.131Z,34.80
2018-06-24T19:07:17.360Z,35.30
2018-06-24T19:09:46.711Z,35.50
2018-06-24T19:12:19.204Z,35.80
2018-06-24T19:14:48.714Z,36.20
2018-06-24T19:17:20.095Z,36.50
2018-06-24T19:19:52.912Z,36.70
2018-06-24T19:22:22.795Z,37.10
2018-06-24T19:24:54.071Z,37.20
2018-06-24T19:27:23.712Z,37.70
2018-06-24T19:29:57.290Z,37.90
2018-06-24T19:32:29.850Z,38.10
2018-06-24T19:34:59.350Z,38.40
2018-06-24T19:37:29.870Z,38.70
2018-06-24T19:39:59.484Z,38.80
2018-06-24T19:42:29.399Z,39.00
2018-06-24T19:44:58.980Z,39.90
2018-06-24T19:47:28.105Z,39.60
2018-06-24T19:49:57.345Z,40.10
2018-06-24T19:52:27.081Z,40.00
2018-06-24T19:54:57.129Z,41.00
2018-06-24T19:57:26.390Z,41.00
2018-06-24T19:59:55.521Z,41.00
2018-06-24T20:02:25.166Z,41.30
2018-06-24T20:04:54.140Z,41.30
2018-06-24T20:07:24.815Z,41.40
2018-06-24T20:09:54.243Z,40.60
2018-06-24T20:12:24.237Z,40.80
2018-06-24T20:14:54.043Z,40.50
2018-06-24T20:17:23.123Z,40.80
2018-06-24T20:19:52.267Z,41.00
2018-06-24T20:22:23.334Z,40.60
2018-06-24T20:24:52.661Z,40.60
2018-06-24T20:27:25.579Z,40.40
2018-06-24T20:29:55.171Z,40.30
2018-06-24T20:32:24.757Z,39.90
2018-06-24T20:37:24.567Z,40.10
2018-06-24T20:39:58.718Z,41.30
2018-06-24T20:42:27.979Z,40.10
2018-06-24T20:44:57.892Z,41.10
2018-06-24T20:47:31.633Z,39.80
2018-06-24T20:50:02.911Z,39.80
2018-06-24T20:52:33.380Z,39.80
2018-06-24T20:55:04.783Z,39.80
2018-06-24T20:57:35.817Z,40.00
2018-06-24T21:00:28.978Z,39.80
2018-06-24T21:03:01.879Z,40.20
2018-06-24T21:05:35.729Z,40.20
2018-06-24T21:08:04.697Z,40.30
2018-06-24T21:10:34.057Z,40.10
2018-06-24T21:13:04.133Z,40.50
2018-06-24T21:15:34.251Z,40.20
2018-06-24T21:18:04.519Z,40.40
2018-06-24T21:20:33.723Z,40.30
2018-06-24T21:23:02.813Z,40.70
2018-06-24T21:25:32.996Z,40.50
2018-06-24T21:28:01.926Z,40.40
2018-06-24T21:30:31.105Z,40.30
2018-06-24T21:33:00.540Z,40.60
2018-06-24T21:35:30.737Z,40.70
2018-06-24T21:37:59.546Z,40.90
2018-06-24T21:40:29.097Z,40.60
2018-06-24T21:42:58.395Z,40.90
2018-06-24T21:45:27.367Z,40.60
2018-06-24T21:47:57.282Z,40.70
2018-06-24T21:50:26.772Z,40.50
2018-06-24T21:52:56.616Z,40.70
2018-06-24T21:55:25.923Z,40.90
2018-06-24T21:57:55.793Z,40.80
2018-06-24T22:00:25.823Z,40.70
2018-06-24T22:02:55.725Z,40.50
2018-06-24T22:05:24.756Z,40.40
2018-06-24T22:07:54.319Z,40.40
2018-06-24T22:10:23.573Z,40.40
2018-06-24T22:12:52.894Z,40.20
2018-06-24T22:15:21.849Z,40.10
2018-06-24T22:17:50.807Z,40.10
2018-06-24T22:20:20.317Z,40.10
2018-06-24T22:22:51.525Z,40.00
2018-06-24T22:25:22.607Z,39.80
2018-06-24T22:27:51.598Z,40.20
2018-06-24T22:30:21.255Z,40.30
2018-06-24T22:32:50.976Z,40.30
2018-06-24T22:35:19.937Z,39.80
2018-06-24T22:37:49.486Z,40.00
2018-06-24T22:40:19.071Z,40.20
2018-06-24T22:42:48.243Z,39.50
2018-06-24T22:45:17.399Z,39.80
2018-06-24T22:47:46.782Z,39.40
2018-06-24T22:50:15.953Z,39.60
2018-06-24T22:52:44.853Z,40.00
2018-06-24T23:00:14.505Z,39.60
2018-06-24T23:02:44.101Z,39.80
2018-06-24T23:05:13.477Z,39.40
2018-06-24T23:07:43.344Z,39.50
2018-06-24T23:10:13.639Z,39.50
2018-06-24T23:12:42.569Z,39.60
2018-06-24T23:15:12.907Z,39.30
2018-06-24T23:17:41.897Z,39.30
2018-06-24T23:20:11.843Z,39.30
2018-06-24T23:22:40.875Z,39.40
2018-06-24T23:25:09.997Z,39.50
2018-06-24T23:27:39.295Z,39.30
2018-06-24T23:30:09.453Z,38.70
2018-06-24T23:32:38.240Z,38.70
2018-06-24T23:35:07.125Z,38.80
2018-06-24T23:37:36.161Z,39.10
2018-06-24T23:40:05.492Z,38.90
2018-06-24T23:42:34.484Z,38.80
2018-06-24T23:45:03.414Z,38.70
2018-06-24T23:47:32.251Z,38.70
2018-06-24T23:50:01.195Z,38.90
2018-06-24T23:52:30.279Z,39.40
2018-06-24T23:54:59.132Z,39.20
2018-06-24T23:57:28.160Z,39.40
2018-06-24T23:59:57.089Z,39.80
